Time;durP1;ratioP1;P1;durP2;ratioP2;P2;SDS_P1;SDS_P2;PMS_P1;PMS_P2;Temp;Humidity;BMP_temperature;BMP_pressure;BME280_temperature;BME280_humidity;BME280_pressure;Samples;Min_cycle;Max_cycle;Signal;HPM_P1;HPM_P2
2022/01/27 00:05:20;;;;;;;28.50;14.43;;;7.20;76.80;;;;;;4965483;28;20125;-72
2022/01/27 00:13:27;;;;;;;29.30;14.93;;;7.20;76.90;;;;;;5010495;28;20089;-72
2022/01/27 00:16:00;;;;;;;27.73;14.95;;;7.20;76.70;;;;;;5008803;28;20396;-72
2022/01/27 00:18:29;;;;;;;30.90;16.13;;;7.20;76.70;;;;;;4995210;28;20035;-71
2022/01/27 00:20:55;;;;;;;30.95;15.63;;;7.20;76.50;;;;;;4994252;28;20038;-72
2022/01/27 00:23:21;;;;;;;34.03;16.13;;;7.10;76.60;;;;;;4994582;28;20038;-71
2022/01/27 00:25:47;;;;;;;32.00;16.27;;;7.10;76.70;;;;;;4998770;28;20456;-72
2022/01/27 00:28:12;;;;;;;30.80;15.75;;;7.10;76.70;;;;;;4995985;28;20435;-72
2022/01/27 00:30:39;;;;;;;34.22;16.10;;;7.20;76.80;;;;;;4997269;28;20021;-71
2022/01/27 00:33:05;;;;;;;30.63;15.48;;;7.10;76.50;;;;;;4998539;28;20026;-71
2022/01/27 00:35:32;;;;;;;30.50;15.05;;;7.10;76.60;;;;;;4997973;28;20105;-71
2022/01/27 00:37:58;;;;;;;29.63;15.32;;;7.00;76.50;;;;;;4998455;28;20129;-71
2022/01/27 00:40:24;;;;;;;28.48;15.23;;;7.00;76.70;;;;;;4998451;28;20022;-72
2022/01/27 00:42:50;;;;;;;32.30;16.42;;;7.00;76.60;;;;;;4995872;28;20049;-72
2022/01/27 00:45:16;;;;;;;33.42;16.70;;;7.00;76.90;;;;;;4998240;28;20037;-72
2022/01/27 00:47:41;;;;;;;32.45;16.20;;;7.00;76.80;;;;;;4998381;28;20026;-72
2022/01/27 00:50:07;;;;;;;27.58;14.50;;;7.00;76.70;;;;;;4997900;28;20031;-71
2022/01/27 00:52:38;;;;;;;26.63;13.77;;;7.00;77.00;;;;;;4998171;28;20029;-72
2022/01/27 00:55:07;;;;;;;29.45;14.82;;;7.00;77.00;;;;;;4996171;28;20026;-71
2022/01/27 01:00:04;;;;;;;30.80;15.43;;;7.00;76.60;;;;;;5005561;28;20030;-71
2022/01/27 01:07:38;;;;;;;32.25;15.90;;;7.00;77.00;;;;;;4998163;28;20022;-71
2022/01/27 01:13:39;;;;;;;31.67;15.45;;;7.10;76.80;;;;;;4999885;28;20037;-71
2022/01/27 01:15:37;;;;;;;31.02;15.27;;;7.10;76.70;;;;;;5012783;28;20033;-72
2022/01/27 01:18:40;;;;;;;31.50;14.90;;;7.10;77.10;;;;;;4999000;28;20121;-72
2022/01/27 01:31:43;;;;;;;29.10;14.57;;;7.10;76.80;;;;;;4997737;28;20049;-72
2022/01/27 01:34:17;;;;;;;29.77;15.15;;;7.10;77.00;;;;;;4995304;28;20022;-72
2022/01/27 01:36:54;;;;;;;29.45;14.80;;;7.10;76.80;;;;;;4994295;28;20520;-72
2022/01/27 01:39:22;;;;;;;31.52;15.80;;;7.10;77.00;;;;;;5000047;28;20030;-72
2022/01/27 01:41:49;;;;;;;32.22;15.70;;;7.10;76.90;;;;;;4999994;28;20105;-71
2022/01/27 01:44:15;;;;;;;27.80;14.40;;;7.10;77.10;;;;;;5000091;28;20042;-72
2022/01/27 01:46:41;;;;;;;30.42;14.75;;;7.00;76.70;;;;;;4997983;28;20037;-72
2022/01/27 01:49:07;;;;;;;30.58;15.48;;;7.00;76.70;;;;;;4997332;28;20037;-72
2022/01/27 01:51:34;;;;;;;29.58;15.48;;;7.00;76.70;;;;;;5012221;28;20056;-72
2022/01/27 01:54:00;;;;;;;33.85;16.83;;;7.00;76.90;;;;;;4999038;28;20038;-72
2022/01/27 01:56:26;;;;;;;28.65;14.00;;;6.90;77.00;;;;;;4996908;28;20106;-72
2022/01/27 01:58:51;;;;;;;28.52;14.35;;;7.00;77.00;;;;;;4997147;28;20524;-72
2022/01/27 02:01:19;;;;;;;30.48;15.50;;;7.00;77.10;;;;;;4996097;28;20056;-72
2022/01/27 02:03:45;;;;;;;28.38;15.20;;;7.00;77.10;;;;;;4994741;28;20125;-72
2022/01/27 02:06:20;;;;;;;28.73;14.50;;;6.90;77.20;;;;;;4996156;28;20030;-72
2022/01/27 02:19:52;;;;;;;29.80;15.05;;;7.10;77.20;;;;;;4996434;28;20416;-72
2022/01/27 02:22:19;;;;;;;29.23;14.68;;;7.00;77.30;;;;;;4995999;28;20018;-71
2022/01/27 02:24:44;;;;;;;29.83;14.15;;;7.00;76.90;;;;;;4994558;28;20062;-72
2022/01/27 02:27:10;;;;;;;29.27;14.10;;;7.00;76.90;;;;;;4996336;28;20038;-71
2022/01/27 02:29:36;;;;;;;30.00;14.15;;;7.00;77.40;;;;;;4996561;28;20053;-71
2022/01/27 02:32:02;;;;;;;28.58;15.20;;;7.00;77.30;;;;;;4996259;28;20397;-72
2022/01/27 02:34:28;;;;;;;27.88;13.60;;;7.00;77.50;;;;;;4996260;28;20018;-71
2022/01/27 02:36:54;;;;;;;27.75;14.75;;;7.10;77.40;;;;;;4993875;28;20054;-71
2022/01/27 02:39:20;;;;;;;28.92;14.35;;;7.10;77.10;;;;;;4996064;28;20053;-72
2022/01/27 02:41:49;;;;;;;28.23;13.43;;;7.10;77.30;;;;;;4996075;28;20033;-71
2022/01/27 02:44:21;;;;;;;26.35;13.48;;;7.10;77.10;;;;;;4996307;28;20141;-71
2022/01/27 02:46:50;;;;;;;26.33;13.85;;;7.10;77.10;;;;;;4995836;28;20023;-71
2022/01/27 02:49:16;;;;;;;25.80;13.60;;;7.10;77.10;;;;;;4994957;28;20545;-71
2022/01/27 02:51:41;;;;;;;27.58;13.52;;;7.10;77.30;;;;;;4994284;28;20101;-72
2022/01/27 02:54:07;;;;;;;27.67;13.50;;;7.10;76.90;;;;;;4996052;28;20030;-72
2022/01/27 02:56:33;;;;;;;29.13;14.55;;;7.10;77.20;;;;;;4994584;28;20456;-72
2022/01/27 02:58:59;;;;;;;27.67;13.15;;;7.10;77.30;;;;;;4996189;28;20026;-71
2022/01/27 03:01:25;;;;;;;29.00;14.60;;;7.10;77.20;;;;;;4996091;28;20522;-72
2022/01/27 03:03:50;;;;;;;26.77;13.88;;;7.10;76.90;;;;;;4993011;28;20531;-72
2022/01/27 03:06:16;;;;;;;26.95;14.13;;;7.10;77.30;;;;;;4995824;28;20027;-72
2022/01/27 03:08:42;;;;;;;26.55;13.80;;;7.20;77.40;;;;;;4995709;28;20501;-72
2022/01/27 03:11:12;;;;;;;26.23;13.70;;;7.10;77.00;;;;;;4995562;28;20161;-72
2022/01/27 03:13:40;;;;;;;24.42;13.10;;;7.10;77.10;;;;;;4995678;28;20040;-72
2022/01/27 03:16:08;;;;;;;26.60;13.82;;;7.20;77.10;;;;;;5009948;28;20105;-72
2022/01/27 03:18:33;;;;;;;25.25;12.73;;;7.10;77.00;;;;;;4997241;28;20038;-72
2022/01/27 03:20:59;;;;;;;25.15;13.32;;;7.10;77.20;;;;;;4997086;28;20018;-72
2022/01/27 03:23:24;;;;;;;25.83;13.55;;;7.10;76.90;;;;;;4998408;28;20078;-72
2022/01/27 03:25:50;;;;;;;29.67;13.65;;;7.10;77.00;;;;;;4996182;28;20030;-72
2022/01/27 03:28:18;;;;;;;23.63;12.68;;;7.10;76.90;;;;;;4994901;28;20049;-72
2022/01/27 03:30:44;;;;;;;25.98;13.63;;;7.10;77.20;;;;;;4993301;28;20053;-72
2022/01/27 03:33:09;;;;;;;25.15;12.77;;;7.10;77.20;;;;;;4995249;28;20022;-72
2022/01/27 03:35:35;;;;;;;27.08;13.93;;;7.10;76.70;;;;;;4994985;28;20046;-72
2022/01/27 03:38:00;;;;;;;25.42;12.40;;;7.00;76.90;;;;;;4995278;28;20026;-72
2022/01/27 03:40:26;;;;;;;25.83;13.52;;;7.00;77.00;;;;;;4995387;28;20033;-72
2022/01/27 03:43:03;;;;;;;26.58;13.15;;;7.10;77.40;;;;;;4992547;28;20035;-72
2022/01/27 03:45:29;;;;;;;26.88;13.50;;;7.10;77.40;;;;;;4994855;28;20148;-72
2022/01/27 03:47:55;;;;;;;24.35;12.63;;;7.10;77.00;;;;;;4994922;28;20497;-72
2022/01/27 03:50:21;;;;;;;29.13;14.43;;;7.00;77.10;;;;;;4995040;28;20026;-73
2022/01/27 03:52:47;;;;;;;24.83;12.55;;;7.00;76.90;;;;;;4995177;28;20033;-73
2022/01/27 03:55:12;;;;;;;27.33;13.18;;;7.00;76.80;;;;;;4993865;28;20046;-72
2022/01/27 03:57:38;;;;;;;24.50;12.57;;;7.00;77.30;;;;;;4993556;28;20030;-72
2022/01/27 04:00:06;;;;;;;24.02;12.60;;;7.00;77.10;;;;;;4994538;28;20045;-73
2022/01/27 04:02:35;;;;;;;23.60;11.98;;;7.00;77.30;;;;;;4994974;28;20029;-73
2022/01/27 04:05:00;;;;;;;25.08;12.20;;;7.00;77.00;;;;;;4994897;28;20030;-71
2022/01/27 04:07:26;;;;;;;25.92;12.27;;;6.90;76.60;;;;;;4995150;28;20477;-72
2022/01/27 04:09:51;;;;;;;24.73;12.63;;;6.90;76.90;;;;;;4992550;28;20031;-72
2022/01/27 04:12:17;;;;;;;23.42;11.73;;;6.90;77.10;;;;;;4993525;28;20076;-72
2022/01/27 04:14:43;;;;;;;24.17;11.90;;;6.90;76.90;;;;;;5002066;28;20025;-72
2022/01/27 04:17:09;;;;;;;21.95;11.25;;;6.90;77.10;;;;;;5004035;28;20153;-72
2022/01/27 04:19:35;;;;;;;25.23;12.70;;;6.90;77.00;;;;;;4994798;28;20104;-72
2022/01/27 04:22:01;;;;;;;23.67;12.52;;;6.90;77.00;;;;;;4992733;28;20046;-72
2022/01/27 04:24:26;;;;;;;26.15;11.50;;;6.90;77.00;;;;;;4994350;28;20042;-72
2022/01/27 04:27:00;;;;;;;23.05;12.13;;;6.90;76.70;;;;;;4994605;28;20033;-72
2022/01/27 04:29:27;;;;;;;23.40;11.90;;;6.80;77.00;;;;;;4994703;28;20040;-72
2022/01/27 04:31:53;;;;;;;23.80;11.68;;;6.90;77.00;;;;;;4994816;28;20096;-72
2022/01/27 04:34:19;;;;;;;23.95;11.63;;;6.90;77.20;;;;;;4994098;28;20072;-71
2022/01/27 04:36:45;;;;;;;24.90;11.75;;;6.90;77.10;;;;;;4992547;28;20050;-72
2022/01/27 04:39:33;;;;;;;24.73;12.00;;;6.90;77.00;;;;;;4993440;28;20034;-72
2022/01/27 04:42:33;;;;;;;24.08;11.55;;;6.80;77.00;;;;;;4994383;28;20057;-72
2022/01/27 04:44:54;;;;;;;20.60;10.68;;;6.80;76.90;;;;;;4994047;28;20054;-72
2022/01/27 04:47:30;;;;;;;23.40;11.93;;;6.90;77.20;;;;;;4994377;28;20014;-73
2022/01/27 04:49:57;;;;;;;22.40;11.40;;;6.90;77.10;;;;;;4994430;28;20121;-72
2022/01/27 04:52:24;;;;;;;20.77;11.52;;;6.90;77.20;;;;;;4994740;28;20414;-72
2022/01/27 04:54:58;;;;;;;23.67;12.07;;;6.90;77.10;;;;;;5007459;28;20026;-72
2022/01/27 04:57:26;;;;;;;26.45;12.82;;;6.90;77.10;;;;;;4997065;28;20477;-72
2022/01/27 04:59:52;;;;;;;22.10;11.68;;;6.90;77.30;;;;;;4997245;28;20028;-72
2022/01/27 05:02:32;;;;;;;23.48;12.13;;;6.90;77.30;;;;;;4997153;28;20022;-72
2022/01/27 05:04:58;;;;;;;25.42;12.63;;;6.90;77.10;;;;;;4997074;28;20092;-71
2022/01/27 05:07:23;;;;;;;25.40;11.98;;;6.90;77.10;;;;;;4992794;28;20030;-72
2022/01/27 05:09:58;;;;;;;22.85;11.93;;;6.90;76.90;;;;;;4995874;28;20030;-72
2022/01/27 05:12:40;;;;;;;21.50;11.23;;;7.00;77.50;;;;;;4999918;28;20030;-71
2022/01/27 05:15:06;;;;;;;23.35;11.80;;;7.00;77.50;;;;;;5009826;28;20112;-72
2022/01/27 05:17:32;;;;;;;24.25;12.38;;;7.00;76.90;;;;;;5003921;28;20032;-72
2022/01/27 05:19:57;;;;;;;24.40;12.10;;;7.00;77.10;;;;;;4997679;28;20109;-72
2022/01/27 05:22:23;;;;;;;26.52;11.95;;;7.00;77.20;;;;;;4998009;28;20437;-72
2022/01/27 05:24:49;;;;;;;23.75;12.07;;;7.00;76.70;;;;;;5010116;28;20522;-72
2022/01/27 05:27:14;;;;;;;23.50;11.65;;;7.00;76.90;;;;;;4997839;28;20022;-72
2022/01/27 05:29:40;;;;;;;24.58;12.50;;;7.00;77.00;;;;;;4997563;28;20409;-72
2022/01/27 05:32:06;;;;;;;23.35;11.70;;;7.00;76.90;;;;;;4997586;28;20069;-72
2022/01/27 05:34:32;;;;;;;23.77;12.18;;;7.00;77.30;;;;;;4997486;28;20061;-72
2022/01/27 05:36:57;;;;;;;23.35;11.68;;;7.00;76.50;;;;;;4995132;28;20077;-72
2022/01/27 05:39:23;;;;;;;21.95;11.75;;;6.90;76.80;;;;;;4996751;28;20034;-72
2022/01/27 05:41:49;;;;;;;23.02;11.90;;;6.90;76.30;;;;;;4997279;28;20027;-72
2022/01/27 05:44:14;;;;;;;23.75;12.15;;;6.90;76.80;;;;;;4997273;28;20046;-72
2022/01/27 05:46:40;;;;;;;21.65;11.13;;;7.00;76.60;;;;;;4997256;28;20018;-72
2022/01/27 05:49:06;;;;;;;22.67;11.93;;;7.00;76.80;;;;;;4994831;28;20497;-72
2022/01/27 05:51:31;;;;;;;25.45;12.73;;;7.00;77.10;;;;;;4996569;28;20022;-72
2022/01/27 05:53:57;;;;;;;22.45;11.68;;;7.00;76.70;;;;;;4996539;28;20031;-72
2022/01/27 05:56:23;;;;;;;26.88;12.70;;;7.00;76.70;;;;;;4997264;28;20030;-72
2022/01/27 05:58:48;;;;;;;25.90;13.07;;;7.00;76.60;;;;;;4997188;28;20022;-72
2022/01/27 06:01:14;;;;;;;23.63;12.52;;;6.90;76.60;;;;;;4995962;28;20037;-72
2022/01/27 06:03:40;;;;;;;24.63;12.20;;;7.00;76.70;;;;;;4995202;28;20478;-71
2022/01/27 06:06:06;;;;;;;24.08;12.55;;;6.90;76.40;;;;;;4996715;28;20113;-72
2022/01/27 06:08:31;;;;;;;21.73;10.93;;;6.90;76.40;;;;;;4999774;28;20018;-72
2022/01/27 06:10:57;;;;;;;23.60;11.65;;;6.90;76.40;;;;;;4999602;28;20033;-72
2022/01/27 06:13:23;;;;;;;26.08;13.18;;;6.90;76.60;;;;;;4995523;28;20044;-73
2022/01/27 06:15:49;;;;;;;21.55;11.52;;;6.90;76.70;;;;;;5010650;28;20444;-72
2022/01/27 06:18:15;;;;;;;21.80;11.27;;;6.90;76.90;;;;;;4996855;28;20081;-72
2022/01/27 06:20:44;;;;;;;21.45;11.95;;;6.90;76.70;;;;;;4996602;28;20366;-72
2022/01/27 06:23:09;;;;;;;25.00;12.32;;;6.90;76.50;;;;;;4995622;28;20040;-73
2022/01/27 06:25:35;;;;;;;24.75;11.88;;;6.90;76.60;;;;;;4996785;28;20025;-73
2022/01/27 06:28:01;;;;;;;23.10;11.60;;;6.90;76.70;;;;;;4994568;28;20057;-72
2022/01/27 06:30:27;;;;;;;24.38;12.10;;;6.90;76.50;;;;;;4995884;28;20026;-71
2022/01/27 06:32:53;;;;;;;23.05;11.48;;;6.90;76.80;;;;;;4996343;28;20034;-72
2022/01/27 06:35:18;;;;;;;22.95;11.82;;;6.90;76.70;;;;;;4996094;28;20061;-72
2022/01/27 06:37:45;;;;;;;24.90;12.02;;;6.90;76.80;;;;;;4996263;28;20066;-72
2022/01/27 06:40:14;;;;;;;25.58;12.88;;;6.90;76.60;;;;;;4994533;28;20022;-72
2022/01/27 06:42:40;;;;;;;24.60;12.57;;;6.90;76.40;;;;;;4993592;28;20027;-73
2022/01/27 06:45:06;;;;;;;27.77;13.48;;;6.80;77.60;;;;;;4996003;28;20053;-73
2022/01/27 06:47:32;;;;;;;26.20;12.55;;;6.80;76.70;;;;;;4996121;28;20413;-72
2022/01/27 06:49:58;;;;;;;24.13;12.07;;;6.80;76.70;;;;;;4995977;28;20034;-72
2022/01/27 06:52:26;;;;;;;25.35;12.43;;;6.80;77.10;;;;;;4995695;28;20485;-72
2022/01/27 06:54:52;;;;;;;23.85;12.43;;;6.90;77.10;;;;;;5009157;28;20105;-72
2022/01/27 06:57:18;;;;;;;25.60;12.88;;;6.90;77.00;;;;;;4998871;28;20120;-72
2022/01/27 06:59:44;;;;;;;26.63;12.93;;;6.90;77.00;;;;;;4998186;28;20022;-71
2022/01/27 07:02:10;;;;;;;25.05;12.65;;;6.80;76.40;;;;;;4998384;28;20396;-72
2022/01/27 07:04:35;;;;;;;24.75;12.10;;;6.80;76.80;;;;;;4995654;28;20137;-72
2022/01/27 07:07:01;;;;;;;28.73;13.85;;;6.80;76.80;;;;;;4994307;28;20026;-72
2022/01/27 07:09:27;;;;;;;25.77;13.10;;;6.80;76.70;;;;;;4998254;28;20052;-71
2022/01/27 07:11:52;;;;;;;24.23;12.20;;;6.70;76.80;;;;;;4997518;28;20501;-72
2022/01/27 07:14:18;;;;;;;25.55;13.05;;;6.80;77.10;;;;;;5000768;28;20026;-72
2022/01/27 07:16:44;;;;;;;25.55;12.45;;;6.70;76.80;;;;;;5007965;28;20126;-72
2022/01/27 07:19:10;;;;;;;26.73;13.05;;;6.70;76.90;;;;;;4993100;28;20097;-72
2022/01/27 07:21:36;;;;;;;25.25;12.82;;;6.70;76.80;;;;;;4997306;28;20113;-73
2022/01/27 07:24:01;;;;;;;22.55;11.80;;;6.70;76.90;;;;;;5005378;28;20092;-73
2022/01/27 07:26:27;;;;;;;29.80;13.73;;;6.60;76.90;;;;;;5004880;28;20060;-72
2022/01/27 07:28:54;;;;;;;22.60;12.18;;;6.60;76.90;;;;;;4997825;28;20076;-73
2022/01/27 07:31:20;;;;;;;24.38;12.57;;;6.70;77.10;;;;;;4991490;28;20172;-72
2022/01/27 07:33:51;;;;;;;22.55;11.52;;;6.70;77.20;;;;;;4995796;28;20113;-71
2022/01/27 07:36:16;;;;;;;27.38;13.35;;;6.70;77.20;;;;;;4997109;28;20041;-71
2022/01/27 07:38:43;;;;;;;25.70;12.07;;;6.70;76.80;;;;;;4997950;28;20037;-71
2022/01/27 07:41:09;;;;;;;22.95;11.77;;;6.70;77.00;;;;;;4997267;28;20049;-71
2022/01/27 07:43:35;;;;;;;30.13;13.73;;;6.60;76.90;;;;;;4993915;28;20038;-71
2022/01/27 07:46:00;;;;;;;23.05;12.00;;;6.60;76.90;;;;;;4995539;28;20032;-72
2022/01/27 07:48:27;;;;;;;22.45;11.85;;;6.60;76.80;;;;;;4996766;28;20041;-70
2022/01/27 07:50:53;;;;;;;23.13;11.57;;;6.70;77.10;;;;;;4996828;28;20022;-71
2022/01/27 07:53:18;;;;;;;25.15;12.82;;;6.70;77.20;;;;;;4997752;28;20516;-71
2022/01/27 07:55:44;;;;;;;22.05;11.13;;;6.70;77.40;;;;;;4996232;28;20040;-70
2022/01/27 07:58:09;;;;;;;22.42;11.40;;;6.80;77.10;;;;;;4995199;28;20439;-72
2022/01/27 08:00:36;;;;;;;24.30;12.20;;;6.80;77.20;;;;;;4996464;28;20026;-72
2022/01/27 08:03:03;;;;;;;19.15;10.77;;;6.80;76.80;;;;;;4994450;28;20113;-71
2022/01/27 08:05:28;;;;;;;20.95;10.85;;;6.70;76.50;;;;;;4998719;28;20034;-70
2022/01/27 08:07:54;;;;;;;22.98;11.70;;;6.70;76.60;;;;;;5001425;28;20494;-71
2022/01/27 08:10:20;;;;;;;19.77;10.55;;;6.70;76.60;;;;;;4995208;28;20046;-72
2022/01/27 08:12:46;;;;;;;21.17;10.73;;;6.70;76.90;;;;;;4993112;28;20477;-72
2022/01/27 08:15:14;;;;;;;22.27;10.95;;;6.80;76.90;;;;;;5006193;28;20655;-72
2022/01/27 08:17:40;;;;;;;22.08;10.80;;;6.70;76.60;;;;;;4999876;28;20023;-71
2022/01/27 08:20:06;;;;;;;21.80;10.52;;;6.80;77.00;;;;;;4994511;28;20042;-72
2022/01/27 08:22:35;;;;;;;23.05;11.68;;;6.80;76.60;;;;;;4996426;28;20034;-73
2022/01/27 08:25:01;;;;;;;22.83;11.15;;;6.80;76.50;;;;;;4994746;28;20114;-71
2022/01/27 08:27:30;;;;;;;23.95;12.15;;;6.80;76.90;;;;;;4997195;28;20457;-72
2022/01/27 08:30:01;;;;;;;20.38;10.52;;;6.80;76.50;;;;;;5000075;28;20435;-67
2022/01/27 08:32:40;;;;;;;23.00;11.25;;;6.90;76.90;;;;;;5004604;28;20026;-67
2022/01/27 08:35:06;;;;;;;20.65;10.50;;;6.90;76.00;;;;;;5001078;28;20133;-66
2022/01/27 08:37:31;;;;;;;25.77;12.55;;;6.90;76.30;;;;;;4993066;28;20129;-70
2022/01/27 08:39:57;;;;;;;22.30;11.48;;;7.00;76.70;;;;;;4994686;28;20122;-70
2022/01/27 08:42:23;;;;;;;23.17;10.90;;;7.10;76.80;;;;;;4985004;28;20527;-71
2022/01/27 08:44:48;;;;;;;22.15;10.93;;;7.10;76.30;;;;;;5001197;28;20092;-70
2022/01/27 08:47:15;;;;;;;20.27;10.70;;;7.10;76.60;;;;;;5006399;28;20031;-71
2022/01/27 08:49:43;;;;;;;20.85;10.23;;;7.20;76.60;;;;;;5004236;28;20033;-77
2022/01/27 08:52:09;;;;;;;24.05;11.70;;;7.20;76.20;;;;;;5013481;28;20076;-78
2022/01/27 08:54:34;;;;;;;23.48;11.25;;;7.20;76.30;;;;;;4999640;28;20499;-76
2022/01/27 08:57:00;;;;;;;23.00;11.32;;;7.20;76.20;;;;;;5010596;28;20037;-78
2022/01/27 08:59:26;;;;;;;24.55;11.77;;;7.20;76.20;;;;;;5003460;28;20041;-77
2022/01/27 09:01:51;;;;;;;23.00;11.88;;;7.20;75.90;;;;;;5000321;28;20451;-76
2022/01/27 09:04:17;;;;;;;22.30;11.65;;;7.10;76.00;;;;;;4997310;28;20049;-74
2022/01/27 09:06:43;;;;;;;19.70;10.30;;;7.10;75.90;;;;;;4999263;28;20041;-75
2022/01/27 09:09:08;;;;;;;20.98;10.55;;;7.10;76.40;;;;;;4999869;28;20512;-71
2022/01/27 09:11:34;;;;;;;21.73;10.45;;;7.20;76.40;;;;;;5009028;28;20040;-72
2022/01/27 09:14:02;;;;;;;22.27;11.02;;;7.20;76.00;;;;;;5018307;28;20034;-79
2022/01/27 09:16:29;;;;;;;22.35;11.13;;;7.20;75.80;;;;;;4996855;28;20026;-71
2022/01/27 09:18:58;;;;;;;22.77;11.30;;;7.20;76.10;;;;;;4993933;28;20043;-68
2022/01/27 09:21:27;;;;;;;23.40;11.45;;;7.20;75.90;;;;;;5010001;28;20065;-68
2022/01/27 09:23:54;;;;;;;23.90;11.85;;;7.10;75.60;;;;;;5013188;28;20069;-68
2022/01/27 09:26:42;;;;;;;22.52;11.07;;;7.20;76.00;;;;;;5009337;28;20030;-68
2022/01/27 09:29:09;;;;;;;23.52;10.88;;;7.20;75.90;;;;;;5012181;28;20041;-68
2022/01/27 09:31:35;;;;;;;23.98;11.73;;;7.10;75.80;;;;;;5002746;28;20116;-68
2022/01/27 09:34:01;;;;;;;22.60;10.93;;;7.10;75.80;;;;;;5008676;28;20029;-66
2022/01/27 09:36:27;;;;;;;21.20;11.30;;;7.20;76.20;;;;;;5012356;28;20104;-66
2022/01/27 09:38:53;;;;;;;20.58;10.23;;;7.20;75.90;;;;;;5008872;28;20041;-66
2022/01/27 09:41:20;;;;;;;24.70;12.02;;;7.20;76.00;;;;;;5007575;28;20730;-66
2022/01/27 09:43:53;;;;;;;20.70;11.38;;;7.20;75.70;;;;;;5009368;28;20054;-70
2022/01/27 09:46:24;;;;;;;20.13;11.00;;;7.20;76.00;;;;;;5012144;28;20065;-69
2022/01/27 09:48:51;;;;;;;20.98;10.25;;;7.20;75.80;;;;;;5009212;28;20046;-69
2022/01/27 09:53:50;;;;;;;21.48;10.60;;;7.30;76.20;;;;;;5001479;28;20152;-71
2022/01/27 09:56:17;;;;;;;22.35;11.88;;;7.30;76.00;;;;;;5007721;28;20035;-71
2022/01/27 09:58:43;;;;;;;23.08;11.88;;;7.30;75.60;;;;;;5012429;28;20518;-72
2022/01/27 10:01:08;;;;;;;18.85;10.05;;;7.40;76.10;;;;;;4994904;28;20025;-70
2022/01/27 10:03:50;;;;;;;20.92;10.05;;;7.40;75.80;;;;;;5008403;28;20488;-69
2022/01/27 10:06:18;;;;;;;20.63;11.00;;;7.30;75.60;;;;;;5006103;28;20025;-69
2022/01/27 10:08:43;;;;;;;21.48;10.85;;;7.40;75.60;;;;;;5006365;28;20408;-70
2022/01/27 10:11:18;;;;;;;19.27;10.27;;;7.30;75.60;;;;;;5000452;28;20030;-69
2022/01/27 10:13:47;;;;;;;28.75;13.75;;;7.30;75.40;;;;;;5001489;28;20032;-68
2022/01/27 10:16:33;;;;;;;22.85;11.35;;;7.30;76.10;;;;;;5010879;28;20014;-69
2022/01/27 10:19:05;;;;;;;23.05;12.15;;;7.20;75.40;;;;;;5001857;28;20026;-67
2022/01/27 10:21:32;;;;;;;21.38;10.52;;;7.10;75.30;;;;;;5008351;28;20117;-66
2022/01/27 10:24:15;;;;;;;23.77;11.45;;;7.20;75.50;;;;;;5007069;28;20417;-67
2022/01/27 10:26:45;;;;;;;24.55;12.15;;;7.30;76.10;;;;;;5012202;28;20048;-66
2022/01/27 10:29:29;;;;;;;23.40;12.45;;;7.30;76.00;;;;;;5008214;28;20536;-66
2022/01/27 10:32:05;;;;;;;23.20;12.05;;;7.40;76.20;;;;;;5006383;28;20113;-66
2022/01/27 10:34:50;;;;;;;23.95;11.75;;;7.40;75.80;;;;;;4996646;28;20030;-66
2022/01/27 10:37:16;;;;;;;23.27;12.13;;;7.60;77.00;;;;;;5002324;28;20639;-64
2022/01/27 10:39:46;;;;;;;20.88;11.15;;;7.80;76.30;;;;;;5008897;28;20544;-66
2022/01/27 10:42:13;;;;;;;25.08;12.50;;;8.00;76.20;;;;;;5006988;28;20034;-69
2022/01/27 10:44:47;;;;;;;23.88;12.20;;;8.10;75.60;;;;;;5009460;28;20066;-63
2022/01/27 10:47:21;;;;;;;25.40;12.45;;;8.10;75.00;;;;;;5020362;28;20108;-68
2022/01/27 10:49:56;;;;;;;24.77;12.73;;;8.20;74.50;;;;;;5016514;28;20037;-67
2022/01/27 10:52:41;;;;;;;22.88;11.18;;;8.20;74.10;;;;;;5019029;28;20540;-67
2022/01/27 10:55:07;;;;;;;23.70;12.20;;;8.20;74.60;;;;;;4994835;28;20106;-68
2022/01/27 10:57:33;;;;;;;22.38;11.15;;;8.20;74.00;;;;;;5004462;28;20112;-70
2022/01/27 11:00:11;;;;;;;22.45;11.65;;;8.30;74.60;;;;;;5004132;28;20496;-75
2022/01/27 11:03:02;;;;;;;22.30;11.45;;;8.30;74.60;;;;;;5006997;28;20032;-73
2022/01/27 11:05:38;;;;;;;24.98;11.88;;;8.30;74.10;;;;;;5000217;28;20121;-71
2022/01/27 11:08:04;;;;;;;22.10;11.70;;;8.30;74.10;;;;;;5008277;28;20026;-71
2022/01/27 11:10:30;;;;;;;22.90;11.18;;;8.30;74.10;;;;;;5009826;28;20507;-69
2022/01/27 11:12:58;;;;;;;24.88;12.20;;;8.30;74.20;;;;;;5002018;28;20022;-67
2022/01/27 11:15:24;;;;;;;23.73;11.57;;;8.30;74.00;;;;;;5001663;28;20401;-68
2022/01/27 11:17:51;;;;;;;23.30;12.13;;;8.30;73.90;;;;;;5003139;28;20062;-69
2022/01/27 11:23:10;;;;;;;24.75;13.23;;;8.30;73.90;;;;;;5010112;28;20030;-65
2022/01/27 11:28:05;;;;;;;25.48;12.07;;;8.30;74.00;;;;;;5000656;28;20492;-65
2022/01/27 11:30:47;;;;;;;22.33;11.60;;;8.30;74.20;;;;;;5002369;28;20096;-65
2022/01/27 11:33:14;;;;;;;25.17;12.13;;;8.30;74.40;;;;;;5001018;28;20017;-65
2022/01/27 11:35:41;;;;;;;22.83;11.23;;;8.40;74.20;;;;;;4996356;28;20081;-65
2022/01/27 11:38:08;;;;;;;23.13;11.85;;;8.40;74.20;;;;;;5000136;28;20503;-68
2022/01/27 11:40:39;;;;;;;27.08;13.70;;;8.60;74.50;;;;;;4994818;28;20029;-66
2022/01/27 11:43:13;;;;;;;25.65;13.40;;;8.60;74.30;;;;;;5009089;28;20018;-65
2022/01/27 11:45:38;;;;;;;;;;;8.80;74.50;;;;;;4997254;28;20034;-66
2022/01/27 11:48:10;;;;;;;20.27;10.80;;;8.90;74.40;;;;;;5004826;28;19963;-70
2022/01/27 11:50:58;;;;;;;21.85;11.48;;;9.10;74.50;;;;;;5001290;28;20025;-66
2022/01/27 11:53:45;;;;;;;19.63;10.55;;;9.20;73.80;;;;;;5000633;28;20085;-65
2022/01/27 11:56:31;;;;;;;22.35;12.38;;;9.50;74.50;;;;;;4995633;28;20042;-66
2022/01/27 11:58:59;;;;;;;22.45;12.68;;;9.70;73.70;;;;;;4996188;28;20038;-67
2022/01/27 12:01:28;;;;;;;23.80;12.07;;;9.80;72.60;;;;;;4989155;28;20034;-66
2022/01/27 12:04:06;;;;;;;25.23;12.80;;;9.90;72.40;;;;;;5004917;28;20710;-68
2022/01/27 12:06:37;;;;;;;21.73;11.38;;;9.90;70.90;;;;;;5013941;28;20030;-66
2022/01/27 12:09:20;;;;;;;20.90;11.68;;;9.80;71.80;;;;;;5012121;28;20432;-70
2022/01/27 12:12:03;;;;;;;28.63;15.20;;;9.80;71.70;;;;;;5016057;28;20403;-70
2022/01/27 12:14:35;;;;;;;23.73;12.52;;;10.00;75.10;;;;;;5011202;28;20055;-73
2022/01/27 12:17:20;;;;;;;25.33;13.27;;;10.20;72.10;;;;;;5006765;28;20448;-80
2022/01/27 12:19:59;;;;;;;24.48;12.48;;;10.10;72.30;;;;;;5008459;28;20026;-76
2022/01/27 12:22:50;;;;;;;22.35;11.40;;;10.20;73.80;;;;;;4999769;28;20026;-69
2022/01/27 12:25:16;;;;;;;23.15;13.13;;;10.30;73.10;;;;;;5011376;28;20038;-76
2022/01/27 12:27:50;;;;;;;28.55;14.23;;;10.40;73.20;;;;;;5021269;28;20028;-76
2022/01/27 12:30:16;;;;;;;23.58;13.05;;;10.50;73.30;;;;;;5022099;28;20034;-77
2022/01/27 12:32:42;;;;;;;27.23;13.93;;;10.60;72.00;;;;;;5006294;28;20416;-73
2022/01/27 12:35:14;;;;;;;22.65;12.27;;;10.80;71.80;;;;;;5013353;28;20036;-74
2022/01/27 12:37:41;;;;;;;27.65;13.80;;;11.10;73.40;;;;;;5016748;28;20033;-73
2022/01/27 12:40:20;;;;;;;21.90;12.63;;;11.30;72.10;;;;;;5022005;28;20041;-72
2022/01/27 12:42:53;;;;;;;24.70;13.63;;;11.20;70.80;;;;;;5019851;28;20033;-74
2022/01/27 12:45:26;;;;;;;;;;;11.10;71.30;;;;;;5016506;28;20042;-74
2022/01/27 12:47:51;;;;;;;20.23;11.35;;;11.30;72.70;;;;;;5019718;28;19996;-75
2022/01/27 12:50:23;;;;;;;21.65;11.85;;;11.40;71.10;;;;;;5017794;28;20109;-74
2022/01/27 12:52:53;;;;;;;21.75;11.82;;;11.40;70.50;;;;;;5012401;28;20030;-75
2022/01/27 12:55:28;;;;;;;23.17;12.10;;;11.20;69.50;;;;;;5004270;28;20036;-75
2022/01/27 12:57:58;;;;;;;24.42;13.32;;;11.30;71.40;;;;;;5020763;28;20057;-74
2022/01/27 13:00:25;;;;;;;26.50;13.77;;;11.50;70.90;;;;;;5011807;28;20121;-76
2022/01/27 13:02:51;;;;;;;23.05;12.68;;;11.60;71.40;;;;;;5007328;28;20033;-76
2022/01/27 13:05:16;;;;;;;20.67;12.75;;;11.60;70.30;;;;;;5007048;28;20037;-76
2022/01/27 13:07:46;;;;;;;23.08;12.68;;;11.50;69.60;;;;;;5006828;28;20036;-75
2022/01/27 13:10:17;;;;;;;22.63;12.27;;;11.40;69.60;;;;;;5017884;28;20056;-74
2022/01/27 13:12:53;;;;;;;21.00;11.98;;;11.30;70.00;;;;;;5012811;28;20017;-76
2022/01/27 13:15:25;;;;;;;19.15;10.63;;;11.30;70.20;;;;;;5008131;28;20034;-77
2022/01/27 13:17:59;;;;;;;20.33;11.33;;;11.20;69.90;;;;;;5001377;28;20034;-74
2022/01/27 13:20:33;;;;;;;24.38;12.77;;;11.10;69.50;;;;;;5005510;28;20292;-76
2022/01/27 13:23:07;;;;;;;23.88;11.93;;;11.00;70.10;;;;;;5008209;28;20031;-76
2022/01/27 13:25:38;;;;;;;23.55;12.63;;;10.90;69.60;;;;;;5012441;28;20433;-78
2022/01/27 13:28:09;;;;;;;26.60;13.85;;;10.70;70.00;;;;;;5011756;28;20087;-79
2022/01/27 13:30:36;;;;;;;22.40;11.73;;;10.60;69.90;;;;;;5004324;28;20084;-79
2022/01/27 13:33:06;;;;;;;23.40;12.77;;;10.60;70.30;;;;;;5006868;28;20022;-79